Time;durP1;ratioP1;P1;durP2;ratioP2;P2;SDS_P1;SDS_P2;PMS_P1;PMS_P2;Temp;Humidity;BMP_temperature;BMP_pressure;BME280_temperature;BME280_humidity;BME280_pressure;Samples;Min_cycle;Max_cycle;Signal;HPM_P1;HPM_P2
2023/10/16 00:00:30;;;;;;;2.10;1.70;;;;;;;10.71;67.09;95141.88;4997536;28;19914;-78
2023/10/16 00:02:59;;;;;;;;;;;;;;;10.74;66.51;95132.59;4997329;28;20042;-78
2023/10/16 00:05:33;;;;;;;2.60;1.50;;;;;;;10.23;65.79;95052.53;4997599;28;19975;-77
2023/10/16 00:08:05;;;;;;;2.65;1.33;;;;;;;10.75;66.62;95140.28;5012062;28;20145;-78
2023/10/16 00:10:32;;;;;;;1.52;1.42;;;;;;;10.18;66.53;95066.63;4995009;28;20116;-78
2023/10/16 00:13:04;;;;;;;5.05;1.40;;;;;;;10.61;66.00;95126.03;4996677;28;20035;-78
2023/10/16 00:15:33;;;;;;;2.38;1.25;;;;;;;10.26;66.36;95115.63;4995818;28;20081;-77
2023/10/16 00:17:58;;;;;;;1.52;1.40;;;;;;;10.42;66.71;95123.22;4995585;28;20046;-78
2023/10/16 00:20:24;;;;;;;1.92;1.17;;;;;;;10.69;66.40;95140.56;4995664;28;20069;-77
2023/10/16 00:22:50;;;;;;;3.53;1.25;;;;;;;10.06;66.40;95125.22;4995783;28;20049;-77
2023/10/16 00:25:18;;;;;;;3.85;1.30;;;;;;;9.91;66.67;95085.53;4995819;28;20038;-78
2023/10/16 00:27:44;;;;;;;1.95;1.20;;;;;;;10.12;66.98;95138.44;4995299;28;20085;-78
2023/10/16 00:30:09;;;;;;;6.97;1.50;;;;;;;10.17;66.76;95171.03;4997339;28;20516;-78
2023/10/16 00:32:38;;;;;;;2.55;1.10;;;;;;;10.08;66.98;95151.44;4992150;28;20065;-80
2023/10/16 00:35:04;;;;;;;8.35;1.65;;;;;;;10.15;67.73;95178.44;4990406;28;20042;-80
2023/10/16 00:37:32;;;;;;;1.25;1.15;;;;;;;10.02;67.43;95150.66;4991665;28;20528;-80
2023/10/16 00:39:57;;;;;;;3.35;1.17;;;;;;;10.27;66.93;95173.66;4990761;28;20057;-80
2023/10/16 00:42:23;;;;;;;2.28;1.20;;;;;;;9.84;66.12;95090.31;4991617;28;20042;-80
2023/10/16 00:44:55;;;;;;;2.70;1.60;;;;;;;10.23;66.11;95146.09;4990479;28;20039;-80
2023/10/16 00:47:21;;;;;;;6.70;1.25;;;;;;;10.16;65.80;95121.72;4990576;28;20054;-80
2023/10/16 00:49:49;;;;;;;2.08;1.50;;;;;;;10.60;65.75;95193.41;4991009;28;20050;-80
2023/10/16 00:52:15;;;;;;;1.60;1.50;;;;;;;10.45;65.67;95183.66;4990444;28;20045;-80
2023/10/16 00:54:41;;;;;;;2.00;1.30;;;;;;;10.20;65.24;95136.06;4991054;28;20478;-80
2023/10/16 00:57:08;;;;;;;1.95;1.70;;;;;;;10.14;65.98;95166.28;4992196;28;20504;-80
2023/10/16 00:59:39;;;;;;;2.13;1.50;;;;;;;10.10;65.82;95151.97;4992597;28;20045;-80
2023/10/16 01:02:07;;;;;;;2.20;1.73;;;;;;;9.59;66.12;95122.97;4991259;28;20505;-81
2023/10/16 01:04:33;;;;;;;2.88;2.17;;;;;;;9.97;66.24;95184.34;4995427;28;20047;-80
2023/10/16 01:07:00;;;;;;;3.28;2.22;;;;;;;10.13;66.67;95216.88;4994803;28;20374;-80
2023/10/16 01:09:26;;;;;;;11.07;2.63;;;;;;;9.61;66.59;95149.97;5001076;28;20135;-80
2023/10/16 01:11:54;;;;;;;2.92;2.35;;;;;;;10.15;66.40;95225.34;4998715;28;20070;-80
2023/10/16 01:14:20;;;;;;;5.90;2.80;;;;;;;9.77;66.86;95166.63;5022038;28;20038;-80
2023/10/16 01:16:46;;;;;;;5.45;3.30;;;;;;;10.05;66.40;95236.78;5010995;28;20073;-80
2023/10/16 01:19:14;;;;;;;4.07;3.20;;;;;;;9.57;66.81;95198.44;5022591;28;20054;-80
2023/10/16 01:21:39;;;;;;;3.67;3.33;;;;;;;9.74;67.11;95200.81;5021363;28;20049;-80
2023/10/16 01:24:12;;;;;;;9.65;4.07;;;;;;;9.54;67.75;95167.19;5011927;28;20050;-80
2023/10/16 01:26:40;;;;;;;4.40;3.92;;;;;;;9.27;67.65;95119.84;5013470;28;20102;-80
2023/10/16 01:29:07;;;;;;;7.05;4.15;;;;;;;9.32;68.21;95154.22;5013168;28;20038;-80
2023/10/16 01:31:37;;;;;;;6.53;4.57;;;;;;;9.43;68.80;95192.09;4995481;28;20042;-80
2023/10/16 01:34:04;;;;;;;6.45;4.50;;;;;;;9.62;68.67;95206.34;4995985;28;20038;-80
2023/10/16 01:36:33;;;;;;;5.75;4.63;;;;;;;9.48;68.45;95213.25;5013475;28;20049;-80
2023/10/16 01:38:59;;;;;;;7.45;5.13;;;;;;;9.46;67.82;95180.97;4999052;28;20049;-80
2023/10/16 01:41:25;;;;;;;11.05;5.95;;;;;;;9.13;67.29;95171.72;5000300;28;20065;-83
2023/10/16 01:43:55;;;;;;;13.80;5.93;;;;;;;9.06;68.58;95176.47;5005309;28;20137;-82
2023/10/16 01:46:20;;;;;;;12.15;6.05;;;;;;;9.34;68.85;95220.13;5006421;28;20081;-82
2023/10/16 01:48:49;;;;;;;11.82;6.25;;;;;;;9.40;69.15;95246.34;5007435;28;20046;-83
2023/10/16 01:51:19;;;;;;;14.20;6.10;;;;;;;9.51;68.97;95255.09;5006209;28;20115;-83
2023/10/16 01:53:47;;;;;;;10.68;7.22;;;;;;;9.26;69.74;95251.38;5003570;28;20580;-83
2023/10/16 01:56:12;;;;;;;10.35;7.28;;;;;;;9.18;69.75;95283.63;5005583;28;20583;-83
2023/10/16 01:58:46;;;;;;;13.82;7.80;;;;;;;8.79;70.10;95253.38;5002752;28;20038;-83
2023/10/16 02:01:16;;;;;;;12.50;8.13;;;;;;;8.75;69.92;95234.59;5003668;28;20058;-82
2023/10/16 02:03:44;;;;;;;12.50;7.65;;;;;;;9.24;70.10;95297.66;5019838;28;20042;-82
2023/10/16 02:06:12;;;;;;;15.18;8.07;;;;;;;9.03;69.60;95275.66;5020526;28;20397;-83
2023/10/16 02:08:39;;;;;;;10.35;8.05;;;;;;;9.06;68.97;95306.09;5004508;28;20168;-82
2023/10/16 02:11:06;;;;;;;19.52;7.70;;;;;;;9.16;69.01;95306.91;5004715;28;20152;-83
2023/10/16 02:13:35;;;;;;;7.85;6.43;;;;;;;8.77;67.95;95250.97;5004852;28;20042;-83
2023/10/16 02:16:06;;;;;;;9.48;6.32;;;;;;;9.02;67.67;95294.44;5003719;28;20046;-83
2023/10/16 02:18:40;;;;;;;10.65;6.35;;;;;;;9.26;66.97;95291.06;5002956;28;20045;-83
2023/10/16 02:21:13;;;;;;;10.68;6.60;;;;;;;9.20;66.47;95300.03;5004053;28;20046;-83
2023/10/16 02:23:46;;;;;;;14.75;6.72;;;;;;;9.04;66.50;95287.84;5021353;28;20078;-84
2023/10/16 02:26:18;;;;;;;7.35;5.93;;;;;;;9.24;66.00;95338.16;5021453;28;20050;-82
2023/10/16 02:28:46;;;;;;;10.43;6.78;;;;;;;9.18;65.57;95320.69;5006863;28;20042;-83
2023/10/16 02:31:14;;;;;;;8.52;6.93;;;;;;;9.26;66.02;95325.47;5006955;28;20101;-82
2023/10/16 02:33:45;;;;;;;14.70;6.35;;;;;;;8.85;65.50;95282.22;5011875;28;20078;-83
2023/10/16 02:36:12;;;;;;;10.27;6.13;;;;;;;8.96;65.71;95306.06;5011311;28;20081;-83
2023/10/16 02:38:37;;;;;;;7.68;6.47;;;;;;;8.66;64.73;95225.56;5006894;28;20042;-83
2023/10/16 02:41:03;;;;;;;10.25;6.88;;;;;;;9.10;64.72;95309.78;5005098;28;20153;-83
2023/10/16 02:43:32;;;;;;;8.43;6.07;;;;;;;8.99;64.60;95318.78;5004864;28;20430;-83
2023/10/16 02:46:01;;;;;;;13.32;6.35;;;;;;;9.31;64.15;95348.47;5019899;28;20050;-82
2023/10/16 02:48:27;;;;;;;9.55;5.95;;;;;;;9.01;64.17;95309.50;5001962;28;20042;-82
2023/10/16 02:50:59;;;;;;;13.20;5.53;;;;;;;9.24;64.25;95340.00;5004366;28;20053;-83
2023/10/16 02:53:29;;;;;;;8.77;6.03;;;;;;;9.20;64.13;95328.34;4992287;28;20493;-77
2023/10/16 02:56:05;;;;;;;14.18;6.40;;;;;;;9.11;63.96;95317.47;4991429;28;20046;-78
2023/10/16 02:58:31;;;;;;;9.07;6.00;;;;;;;8.98;63.83;95278.31;4992546;28;20104;-77
2023/10/16 03:00:59;;;;;;;7.25;5.80;;;;;;;8.96;64.46;95283.03;4992663;28;20046;-77
2023/10/16 03:03:26;;;;;;;10.90;5.90;;;;;;;9.36;63.61;95353.00;4992987;28;20119;-78
2023/10/16 03:05:55;;;;;;;13.15;6.72;;;;;;;9.29;64.03;95362.00;4992953;28;20145;-77
2023/10/16 03:08:22;;;;;;;9.20;5.82;;;;;;;9.43;64.04;95364.16;5007651;28;20054;-77
2023/10/16 03:10:51;;;;;;;7.53;6.18;;;;;;;9.11;64.29;95336.00;5007401;28;20093;-78
2023/10/16 03:13:18;;;;;;;11.80;6.75;;;;;;;9.00;64.07;95320.38;5007582;28;20129;-78
2023/10/16 03:15:47;;;;;;;8.65;5.80;;;;;;;9.07;63.34;95332.28;4991282;28;20539;-77
2023/10/16 03:18:17;;;;;;;8.38;6.55;;;;;;;9.43;64.08;95380.03;5007640;28;20042;-78
2023/10/16 03:20:46;;;;;;;8.68;5.32;;;;;;;8.70;62.58;95303.31;4990936;28;20089;-77
2023/10/16 03:23:13;;;;;;;7.57;5.68;;;;;;;9.42;62.70;95389.81;4992441;28;20042;-77
2023/10/16 03:28:14;;;;;;;8.13;5.53;;;;;;;9.25;62.28;95360.91;4992572;28;20042;-78
2023/10/16 03:30:42;;;;;;;10.35;5.55;;;;;;;8.78;62.95;95353.06;4990701;28;20046;-77
2023/10/16 03:33:08;;;;;;;9.63;6.60;;;;;;;9.15;62.78;95399.78;4990645;28;20096;-77
2023/10/16 03:35:34;;;;;;;6.55;4.82;;;;;;;9.03;62.63;95351.56;4992476;28;20489;-78
2023/10/16 03:38:10;;;;;;;9.27;5.35;;;;;;;8.61;63.32;95304.09;4991049;28;20042;-77
2023/10/16 03:40:36;;;;;;;7.45;5.88;;;;;;;9.25;63.14;95376.78;5007133;28;20054;-77
2023/10/16 03:43:02;;;;;;;8.48;5.57;;;;;;;9.15;63.17;95403.25;5006914;28;20046;-77
2023/10/16 03:45:28;;;;;;;8.20;5.75;;;;;;;8.89;63.47;95381.16;4992310;28;20081;-77
2023/10/16 03:47:57;;;;;;;12.18;6.20;;;;;;;8.40;63.62;95317.16;5007534;28;20054;-77
2023/10/16 03:50:34;;;;;;;9.45;5.57;;;;;;;8.80;63.89;95387.19;5006873;28;20062;-78
2023/10/16 03:53:03;;;;;;;9.07;6.30;;;;;;;8.60;63.62;95355.34;4992779;28;20038;-78
2023/10/16 03:55:31;;;;;;;15.95;6.70;;;;;;;8.67;63.63;95334.78;4990287;28;20050;-78
2023/10/16 03:57:57;;;;;;;10.82;6.65;;;;;;;9.04;63.20;95388.38;5004171;28;20057;-78
2023/10/16 04:00:50;;;;;;;10.10;6.60;;;;;;;8.65;63.63;95355.38;5015687;28;20076;-78
2023/10/16 04:03:17;;;;;;;8.73;6.63;;;;;;;9.03;63.74;95415.06;5010930;28;20130;-78
2023/10/16 04:05:45;;;;;;;8.90;6.40;;;;;;;8.84;63.53;95378.50;5006933;28;20044;-78
2023/10/16 04:08:18;;;;;;;15.38;7.85;;;;;;;9.15;63.02;95429.69;5017351;28;20085;-78
2023/10/16 04:10:46;;;;;;;10.85;6.75;;;;;;;8.89;62.60;95388.28;5008152;28;20054;-78
2023/10/16 04:13:17;;;;;;;11.48;6.15;;;;;;;8.56;63.21;95372.75;5009574;28;20045;-78
2023/10/16 04:20:55;;;;;;;11.68;6.93;;;;;;;9.12;62.20;95461.94;5003996;28;20116;-80
2023/10/16 04:23:37;;;;;;;10.82;6.00;;;;;;;8.94;62.43;95421.91;4998661;28;20042;-78
2023/10/16 04:31:54;;;;;;;8.50;6.45;;;;;;;9.06;62.71;95501.88;4932748;28;20283;-81
2023/10/16 04:37:37;;;;;;;11.90;5.88;;;;;;;8.80;63.21;95469.97;4981394;28;20342;-80
2023/10/16 04:53:14;;;;;;;13.85;6.13;;;;;;;9.07;62.10;95501.63;4977376;28;20065;-80
2023/10/16 04:58:59;;;;;;;10.27;5.60;;;;;;;9.11;62.10;95517.75;4972732;28;20386;-80
2023/10/16 05:03:35;;;;;;;7.53;5.25;;;;;;;8.90;61.66;95496.47;4986242;28;20050;-80
2023/10/16 05:13:17;;;;;;;12.32;5.53;;;;;;;9.13;61.81;95555.34;5001816;28;20278;-79
2023/10/16 05:17:21;;;;;;;11.13;6.10;;;;;;;9.12;62.19;95538.69;4977030;28;20038;-78
2023/10/16 05:19:53;;;;;;;13.95;5.93;;;;;;;9.02;61.16;95546.53;4992221;28;20103;-81
2023/10/16 06:14:13;;;;;;;12.82;4.30;;;;;;;9.37;58.10;95649.22;5032153;28;20064;-83
2023/10/16 06:16:39;;;;;;;9.05;4.60;;;;;;;9.43;58.02;95647.41;5035072;28;20069;-84
2023/10/16 06:19:14;;;;;;;8.70;5.15;;;;;;;8.99;56.89;95565.59;5012798;28;20592;-84
2023/10/16 06:21:45;;;;;;;7.15;3.83;;;;;;;9.17;56.92;95607.50;5014807;28;20048;-83
2023/10/16 06:24:33;;;;;;;7.45;3.60;;;;;;;9.03;57.27;95651.31;5034345;28;20743;-88
2023/10/16 06:27:01;;;;;;;12.02;3.83;;;;;;;9.07;57.40;95652.44;5026909;28;20049;-84
2023/10/16 06:29:40;;;;;;;12.07;3.85;;;;;;;8.46;57.62;95548.75;5033974;28;20835;-87
2023/10/16 06:32:07;;;;;;;9.82;4.10;;;;;;;9.28;57.30;95672.72;5021161;28;20120;-87
2023/10/16 06:34:36;;;;;;;11.68;4.93;;;;;;;9.49;56.63;95668.34;5012838;28;20041;-89
2023/10/16 06:37:09;;;;;;;9.00;3.63;;;;;;;9.45;56.76;95661.19;5005598;28;20444;-85
2023/10/16 06:39:35;;;;;;;6.35;3.53;;;;;;;9.04;55.96;95630.94;5007551;28;20128;-86
2023/10/16 06:42:04;;;;;;;5.93;3.28;;;;;;;9.13;56.46;95647.97;5007579;28;20029;-87
2023/10/16 06:44:33;;;;;;;15.85;3.58;;;;;;;9.14;57.01;95634.50;5005575;28;20061;-85
2023/10/16 06:46:59;;;;;;;7.90;3.67;;;;;;;9.40;56.65;95651.34;5013704;28;20522;-82
2023/10/16 06:49:35;;;;;;;13.60;4.05;;;;;;;9.69;56.10;95676.41;5035355;28;20053;-83
2023/10/16 06:52:12;;;;;;;7.38;3.78;;;;;;;9.14;55.79;95620.47;5007174;28;20041;-86
2023/10/16 06:54:39;;;;;;;10.02;3.22;;;;;;;8.52;56.17;95563.63;5012683;28;20103;-81
2023/10/16 06:57:13;;;;;;;13.60;4.40;;;;;;;8.91;56.45;95621.59;5029686;28;20124;-81
2023/10/16 06:59:46;;;;;;;8.63;3.95;;;;;;;9.46;56.46;95687.38;5001435;28;20049;-81
2023/10/16 07:02:15;;;;;;;17.48;4.28;;;;;;;9.39;56.44;95688.66;5006068;28;20037;-83
2023/10/16 07:04:47;;;;;;;12.68;3.90;;;;;;;9.04;56.21;95658.22;5021346;28;20052;-87
2023/10/16 07:07:17;;;;;;;8.10;3.50;;;;;;;8.62;56.54;95620.28;5025367;28;20057;-82
2023/10/16 07:09:49;;;;;;;8.15;3.83;;;;;;;8.57;56.62;95621.00;5003931;28;20061;-83
2023/10/16 07:12:16;;;;;;;13.10;4.03;;;;;;;8.31;57.50;95577.69;4994231;28;20046;-83
2023/10/16 07:14:55;;;;;;;7.60;3.53;;;;;;;8.55;56.84;95599.31;5007808;28;20050;-84
2023/10/16 07:17:30;;;;;;;16.27;4.70;;;;;;;9.26;56.93;95700.47;5004186;28;20049;-84
2023/10/16 07:20:00;;;;;;;5.97;3.33;;;;;;;8.90;56.37;95663.13;5011719;28;20025;-84
2023/10/16 07:22:32;;;;;;;4.88;3.20;;;;;;;9.16;56.52;95695.06;5012139;28;20026;-84
2023/10/16 07:25:09;;;;;;;13.18;3.60;;;;;;;9.27;56.40;95694.94;5010989;28;20057;-84
2023/10/16 07:27:35;;;;;;;10.75;3.75;;;;;;;9.19;55.72;95692.75;5010031;28;20311;-82
2023/10/16 07:30:21;;;;;;;7.47;3.60;;;;;;;9.18;55.69;95671.81;5014329;28;20108;-81
2023/10/16 07:32:48;;;;;;;8.15;3.22;;;;;;;8.88;55.39;95619.44;5031772;28;20037;-82
2023/10/16 07:35:17;;;;;;;8.30;3.33;;;;;;;9.34;55.42;95693.91;5016590;28;20516;-83
2023/10/16 07:37:48;;;;;;;7.43;3.28;;;;;;;9.15;54.89;95645.88;5018153;28;20633;-83
2023/10/16 07:40:20;;;;;;;8.95;3.53;;;;;;;9.59;55.09;95691.47;5015057;28;20041;-82
2023/10/16 07:42:52;;;;;;;10.55;3.33;;;;;;;9.03;54.65;95585.19;5008157;28;20536;-85
2023/10/16 07:45:19;;;;;;;12.30;4.20;;;;;;;9.70;54.32;95693.13;5015940;28;20041;-85
2023/10/16 07:47:47;;;;;;;8.07;2.85;;;;;;;9.62;52.68;95630.81;4984521;28;20679;-86
2023/10/16 07:50:12;;;;;;;5.05;2.60;;;;;;;8.84;51.54;95542.47;5014115;28;20060;-85
2023/10/16 07:52:41;;;;;;;6.15;2.38;;;;;;;9.78;50.90;95642.31;5009807;28;20057;-85
2023/10/16 07:55:09;;;;;;;6.43;2.88;;;;;;;9.64;51.58;95626.09;4996266;28;20076;-84
2023/10/16 07:57:35;;;;;;;6.47;3.22;;;;;;;9.17;51.02;95543.19;4995181;28;20046;-86
2023/10/16 08:00:13;;;;;;;8.32;3.20;;;;;;;9.92;50.39;95630.19;5000664;28;20049;-84
2023/10/16 08:02:44;;;;;;;3.83;2.95;;;;;;;10.31;49.17;95682.88;4995420;28;20037;-83
2023/10/16 08:05:15;;;;;;;;;;;;;;;10.25;49.25;95671.47;5013886;28;20530;-83
2023/10/16 08:07:47;;;;;;;4.82;2.00;;;;;;;9.68;48.56;95573.41;4987641;28;20341;-83
2023/10/16 08:10:47;;;;;;;5.70;2.85;;;;;;;10.40;49.74;95670.72;4998622;28;20045;-84
2023/10/16 08:13:11;;;;;;;7.13;2.88;;;;;;;10.00;49.86;95650.91;4956586;28;20080;-83
2023/10/16 08:15:51;;;;;;;10.85;3.10;;;;;;;10.29;50.02;95671.75;5013443;28;20461;-82
2023/10/16 08:18:18;;;;;;;9.45;2.55;;;;;;;10.29;48.48;95656.66;4997060;28;20138;-84
2023/10/16 08:20:49;;;;;;;5.70;2.30;;;;;;;8.94;48.39;95446.50;4999629;28;20124;-83
2023/10/16 08:23:21;;;;;;;9.05;3.08;;;;;;;10.39;48.33;95667.25;5003438;28;20512;-84
2023/10/16 08:25:47;;;;;;;8.00;3.17;;;;;;;10.28;48.53;95633.84;5014108;28;20161;-83
2023/10/16 08:28:24;;;;;;;8.82;2.33;;;;;;;10.14;48.11;95608.84;4998185;28;20603;-83
2023/10/16 08:30:52;;;;;;;6.30;2.70;;;;;;;10.25;48.06;95615.78;5016618;28;20101;-84
2023/10/16 08:33:28;;;;;;;7.05;3.00;;;;;;;10.33;48.25;95625.88;5005706;28;20512;-85
2023/10/16 08:35:58;;;;;;;9.77;3.45;;;;;;;10.55;47.60;95662.81;5001897;28;20057;-83
2023/10/16 08:38:26;;;;;;;13.35;3.05;;;;;;;9.49;47.25;95508.69;5002700;28;20107;-86
2023/10/16 08:41:00;;;;;;;8.93;2.20;;;;;;;10.75;47.46;95681.44;5017491;28;20038;-82
2023/10/16 08:43:39;;;;;;;5.40;2.53;;;;;;;10.74;47.16;95673.75;5026073;28;20487;-83
2023/10/16 08:46:18;;;;;;;3.67;2.17;;;;;;;9.96;46.01;95543.84;5000056;28;20073;-84
2023/10/16 08:48:48;;;;;;;10.45;2.97;;;;;;;10.65;46.62;95651.44;5007647;28;20033;-89
2023/10/16 08:51:16;;;;;;;4.43;2.47;;;;;;;10.95;46.09;95687.84;5030027;28;20099;-88
2023/10/16 08:53:43;;;;;;;5.25;2.25;;;;;;;10.24;45.69;95590.34;5015332;28;20108;-87
2023/10/16 08:56:12;;;;;;;4.70;2.28;;;;;;;10.42;46.02;95616.38;5019941;28;20120;-87
2023/10/16 08:58:46;;;;;;;3.95;2.63;;;;;;;10.95;45.15;95678.03;5003514;28;20327;-86
2023/10/16 09:01:16;;;;;;;8.10;2.53;;;;;;;10.86;45.56;95649.63;5003612;28;20663;-86
2023/10/16 09:04:00;;;;;;;9.52;2.03;;;;;;;11.09;45.22;95678.31;5008771;28;20033;-88
2023/10/16 09:06:25;;;;;;;5.25;2.45;;;;;;;10.55;45.49;95607.13;5004520;28;20038;-88
2023/10/16 09:08:54;;;;;;;5.65;2.20;;;;;;;10.99;45.67;95647.22;5015769;28;20048;-84
2023/10/16 09:11:19;;;;;;;9.10;2.67;;;;;;;10.35;45.11;95525.69;5018626;28;20053;-84
2023/10/16 09:13:51;;;;;;;3.63;2.20;;;;;;;10.65;45.16;95583.28;5016630;28;20041;-84
2023/10/16 09:16:21;;;;;;;7.32;2.38;;;;;;;11.25;44.85;95666.63;5019326;28;20443;-84
2023/10/16 09:18:47;;;;;;;7.88;2.50;;;;;;;11.30;44.66;95676.44;5007431;28;20046;-84
2023/10/16 09:21:24;;;;;;;4.20;2.22;;;;;;;10.72;44.23;95570.53;5017700;28;20033;-85
2023/10/16 09:23:51;;;;;;;8.30;2.40;;;;;;;11.54;44.85;95667.69;5014064;28;20038;-87
2023/10/16 09:26:18;;;;;;;4.88;2.47;;;;;;;11.54;44.29;95675.66;4997878;28;20045;-88
2023/10/16 09:28:49;;;;;;;10.75;2.20;;;;;;;10.83;43.72;95558.84;5032583;28;20049;-89
2023/10/16 09:31:19;;;;;;;5.72;2.50;;;;;;;10.19;43.79;95452.50;5018859;28;20065;-84
2023/10/16 09:33:54;;;;;;;6.30;2.42;;;;;;;11.14;44.09;95575.56;5007955;28;20082;-88
2023/10/16 09:36:22;;;;;;;13.18;2.75;;;;;;;9.91;42.92;95365.56;5017756;28;20106;-85
2023/10/16 09:38:51;;;;;;;9.63;2.22;;;;;;;10.79;43.48;95482.72;5018121;28;20080;-82
2023/10/16 09:41:43;;;;;;;6.60;1.90;;;;;;;12.10;42.66;95658.84;5001214;28;20048;-84
2023/10/16 09:44:22;;;;;;;4.50;2.03;;;;;;;11.69;42.44;95640.31;4999871;28;20049;-83
2023/10/16 09:46:52;;;;;;;8.23;2.15;;;;;;;11.12;43.05;95600.81;5012542;28;20050;-83
2023/10/16 09:49:28;;;;;;;6.97;2.00;;;;;;;11.15;42.50;95523.28;5029235;28;20393;-85
2023/10/16 09:51:57;;;;;;;7.28;2.08;;;;;;;11.87;41.50;95545.97;5017660;28;20388;-85
2023/10/16 09:54:25;;;;;;;6.18;1.90;;;;;;;12.87;40.07;95581.03;5014601;28;20133;-84
2023/10/16 09:56:59;;;;;;;11.40;2.10;;;;;;;13.14;39.21;95548.59;4999829;28;20140;-90
2023/10/16 09:59:31;;;;;;;4.85;1.73;;;;;;;14.49;38.16;95656.78;4989508;28;20072;-91
2023/10/16 10:02:05;;;;;;;7.05;1.95;;;;;;;13.75;36.85;95396.06;5009896;28;20132;-84
2023/10/16 10:04:32;;;;;;;6.50;2.22;;;;;;;15.67;35.82;95637.94;5036337;23;20220;-77
2023/10/16 10:07:02;;;;;;;14.10;2.30;;;;;;;15.60;35.06;95611.59;4982680;28;20058;-77
2023/10/16 10:09:42;;;;;;;5.57;2.35;;;;;;;15.51;34.79;95570.53;4995008;28;20061;-79
2023/10/16 10:12:47;;;;;;;7.68;1.70;;;;;;;16.45;34.10;95629.78;4983589;28;20054;-80
2023/10/16 10:15:26;;;;;;;4.60;1.98;;;;;;;16.70;33.53;95623.13;5001437;28;20399;-81
2023/10/16 10:17:55;;;;;;;17.02;2.22;;;;;;;17.04;32.83;95609.22;4987811;28;20150;-81
2023/10/16 10:20:31;;;;;;;7.03;1.90;;;;;;;17.68;31.77;95639.34;4982469;28;21188;-81
2023/10/16 10:23:12;;;;;;;3.92;1.88;;;;;;;17.60;31.38;95626.66;4966077;28;20046;-82
2023/10/16 10:25:38;;;;;;;3.83;1.67;;;;;;;17.62;31.25;95592.31;4968346;28;20112;-80
2023/10/16 10:28:11;;;;;;;8.05;2.10;;;;;;;17.70;30.92;95551.28;4977934;28;20328;-80
2023/10/16 10:30:43;;;;;;;4.15;2.10;;;;;;;18.30;30.50;95610.59;4986126;28;20086;-83
2023/10/16 10:33:11;;;;;;;2.67;1.60;;;;;;;18.06;30.38;95616.34;4956655;28;20054;-82
2023/10/16 10:35:40;;;;;;;6.22;2.20;;;;;;;17.55;30.42;95573.13;4959902;28;20248;-81
2023/10/16 10:38:21;;;;;;;3.58;1.58;;;;;;;18.04;30.29;95590.91;4970817;28;20050;-79
2023/10/16 10:41:14;;;;;;;4.65;1.83;;;;;;;17.55;30.98;95597.25;4980544;28;20049;-80
2023/10/16 10:43:50;;;;;;;2.65;1.60;;;;;;;17.67;30.61;95592.16;4963065;28;20046;-78
2023/10/16 10:46:22;;;;;;;9.13;1.95;;;;;;;17.27;31.07;95585.91;4968726;28;20521;-78
2023/10/16 10:48:48;;;;;;;9.45;2.10;;;;;;;17.29;31.45;95589.06;4962730;28;20663;-77
2023/10/16 10:51:16;;;;;;;8.60;2.53;;;;;;;17.34;30.93;95546.84;4975586;28;20086;-78
2023/10/16 10:53:57;;;;;;;6.85;1.67;;;;;;;17.41;31.22;95578.56;4969617;28;20077;-78
2023/10/16 10:56:39;;;;;;;3.40;1.70;;;;;;;17.52;31.40;95563.03;4971972;28;20054;-79
2023/10/16 10:59:13;;;;;;;;;;;;;;;17.72;31.20;95575.94;4967464;28;20810;-78
2023/10/16 11:01:55;;;;;;;6.63;1.90;;;;;;;18.12;30.27;95572.16;4982477;28;20232;-78
2023/10/16 11:04:33;;;;;;;3.13;1.77;;;;;;;17.41;30.92;95569.72;4990036;28;20240;-77
2023/10/16 11:07:24;;;;;;;8.10;1.88;;;;;;;16.61;32.06;95547.28;4980700;28;20053;-78
2023/10/16 11:09:54;;;;;;;3.88;1.50;;;;;;;16.86;31.35;95506.47;4986434;28;20049;-79
2023/10/16 11:12:25;;;;;;;3.60;1.85;;;;;;;17.20;31.16;95569.44;4967657;28;20539;-79
2023/10/16 11:14:51;;;;;;;;;;;;;;;17.42;31.37;95574.00;4984965;28;20116;-81
2023/10/16 11:17:30;;;;;;;3.10;1.65;;;;;;;17.32;30.71;95545.56;4962889;28;20017;-76
2023/10/16 11:19:56;;;;;;;5.32;1.50;;;;;;;17.68;30.22;95518.66;4966106;28;20569;-76
2023/10/16 11:22:31;;;;;;;8.13;2.65;;;;;;;18.42;29.52;95565.13;4966774;28;20034;-78
2023/10/16 11:24:57;;;;;;;4.75;1.83;;;;;;;18.03;29.36;95516.84;4969236;28;20619;-78
2023/10/16 11:27:23;;;;;;;8.25;1.75;;;;;;;18.67;28.99;95528.69;4960503;28;20081;-77
2023/10/16 11:29:52;;;;;;;4.80;2.30;;;;;;;18.66;28.55;95543.22;4968877;28;20121;-76
2023/10/16 11:32:23;;;;;;;5.57;1.80;;;;;;;18.50;29.11;95529.44;4961292;28;20066;-77
2023/10/16 11:34:50;;;;;;;2.90;1.67;;;;;;;18.56;29.11;95550.75;4962762;28;20050;-78
2023/10/16 11:37:23;;;;;;;2.40;1.60;;;;;;;17.96;29.62;95530.72;4967303;28;20568;-77
2023/10/16 11:39:49;;;;;;;3.05;1.52;;;;;;;18.35;29.66;95542.50;4970972;28;20505;-75
2023/10/16 11:42:14;;;;;;;4.75;1.98;;;;;;;18.49;29.34;95535.91;4962857;28;20042;-76
2023/10/16 11:44:41;;;;;;;4.55;1.50;;;;;;;17.98;29.73;95517.00;4962154;28;20456;-77
2023/10/16 11:47:16;;;;;;;3.63;2.13;;;;;;;18.08;29.87;95530.91;4982942;28;20047;-78
2023/10/16 11:49:55;;;;;;;9.32;2.17;;;;;;;18.44;29.37;95535.25;4979956;28;20046;-77
2023/10/16 11:52:22;;;;;;;3.33;1.60;;;;;;;18.03;29.55;95541.81;4966339;28;20130;-79
2023/10/16 11:54:53;;;;;;;6.30;1.80;;;;;;;18.66;29.11;95556.66;4968198;28;20152;-78
2023/10/16 11:57:18;;;;;;;2.53;1.33;;;;;;;18.67;28.11;95541.31;4959968;28;20346;-80
2023/10/16 11:59:44;;;;;;;6.13;1.80;;;;;;;18.74;27.75;95522.84;4979014;28;20120;-79
2023/10/16 12:02:14;;;;;;;7.38;2.22;;;;;;;18.57;28.12;95514.75;4979163;28;20042;-78
2023/10/16 12:04:41;;;;;;;5.05;1.58;;;;;;;18.76;27.85;95534.84;4971863;28;20485;-78
2023/10/16 12:07:13;;;;;;;4.57;1.73;;;;;;;18.95;27.67;95522.97;4979263;28;20128;-78
2023/10/16 12:09:47;;;;;;;8.68;1.60;;;;;;;17.78;28.51;95539.03;4981397;28;20097;-77
2023/10/16 12:12:24;;;;;;;6.00;1.73;;;;;;;17.27;28.78;95527.72;4968979;28;20096;-78
2023/10/16 12:14:51;;;;;;;3.17;1.40;;;;;;;17.50;28.81;95525.78;4979696;28;20046;-78
2023/10/16 12:17:21;;;;;;;7.57;2.10;;;;;;;17.41;27.88;95541.03;4979294;28;20168;-78
2023/10/16 12:19:47;;;;;;;4.03;1.73;;;;;;;17.21;28.03;95464.63;4990980;28;20046;-78
2023/10/16 12:22:15;;;;;;;8.45;2.03;;;;;;;17.95;27.71;95496.94;4990770;28;20048;-78
2023/10/16 12:24:43;;;;;;;8.23;1.40;;;;;;;18.81;26.80;95517.78;4989565;28;20479;-78
2023/10/16 12:27:15;;;;;;;5.82;1.95;;;;;;;18.80;26.91;95522.34;4976404;28;20042;-77
2023/10/16 12:29:41;;;;;;;6.97;1.80;;;;;;;18.73;26.07;95454.09;4991970;28;20529;-77
2023/10/16 12:32:07;;;;;;;7.03;1.85;;;;;;;19.14;25.93;95481.22;4989712;28;20041;-78
2023/10/16 12:34:33;;;;;;;2.58;1.33;;;;;;;19.42;25.38;95460.09;4987972;28;20456;-77
2023/10/16 12:37:06;;;;;;;4.18;1.70;;;;;;;20.22;25.27;95477.09;4990752;28;20429;-78
2023/10/16 12:39:35;;;;;;;5.90;1.98;;;;;;;19.96;25.38;95517.66;4990037;28;20696;-76
2023/10/16 12:42:05;;;;;;;7.18;1.60;;;;;;;19.82;25.30;95510.91;4997808;28;20050;-76
2023/10/16 12:44:30;;;;;;;5.63;1.70;;;;;;;19.49;25.75;95479.22;5002581;28;20688;-76
2023/10/16 12:46:56;;;;;;;8.65;1.60;;;;;;;19.67;25.73;95496.09;4990366;28;20038;-77
2023/10/16 12:49:22;;;;;;;3.75;1.60;;;;;;;19.82;25.36;95510.91;4985600;28;20424;-77
2023/10/16 12:51:49;;;;;;;17.17;2.10;;;;;;;19.01;26.48;95479.47;4990997;28;20153;-77
2023/10/16 12:54:15;;;;;;;3.92;1.42;;;;;;;19.69;26.35;95477.72;4976908;28;20041;-78
2023/10/16 12:56:43;;;;;;;5.55;1.80;;;;;;;19.62;25.51;95447.84;4973919;28;20072;-81
2023/10/16 12:59:13;;;;;;;6.88;1.75;;;;;;;20.31;25.25;95475.16;4974342;28;20394;-80
2023/10/16 13:01:38;;;;;;;12.77;1.48;;;;;;;19.81;23.65;95455.50;4974987;28;20128;-79
2023/10/16 13:04:13;;;;;;;4.50;1.27;;;;;;;20.27;20.36;95495.78;4980071;28;20084;-78
2023/10/16 13:06:39;;;;;;;3.60;0.90;;;;;;;20.34;19.36;95461.06;4965194;28;20042;-80
2023/10/16 13:09:05;;;;;;;5.97;1.70;;;;;;;20.79;19.31;95466.56;4961347;28;20050;-80
2023/10/16 13:11:31;;;;;;;2.72;1.17;;;;;;;19.75;19.46;95414.56;4952559;28;20043;-81
2023/10/16 13:13:57;;;;;;;2.40;1.30;;;;;;;20.45;19.13;95482.19;4933732;28;20530;-79
2023/10/16 13:16:26;;;;;;;3.70;1.30;;;;;;;20.67;19.28;95482.66;4943462;28;20173;-78
2023/10/16 13:18:59;;;;;;;3.75;1.13;;;;;;;21.06;19.63;95464.38;4963323;28;20534;-77
2023/10/16 13:21:33;;;;;;;1.92;0.90;;;;;;;21.49;19.27;95499.84;4954750;28;20576;-78
2023/10/16 13:24:09;;;;;;;6.80;1.20;;;;;;;21.72;18.93;95484.00;4960410;28;20522;-78
2023/10/16 13:26:38;;;;;;;3.72;2.10;;;;;;;21.52;18.11;95471.38;4948301;28;20039;-79